sensor_id;sensor_type;location;lat;lon;timestamp;noise_LAeq;noise_LA_min;noise_LA_max;noise_LA01;noise_LA95
72276;Laerm;61204;49.980;8.358;2024-01-27T00:02:22;48.51;42.44;66.88;;
72276;Laerm;61204;49.980;8.358;2024-01-27T00:04:50;46.30;40.49;60.21;;
72276;Laerm;61204;49.980;8.358;2024-01-27T00:07:18;46.85;41.41;64.04;;
72276;Laerm;61204;49.980;8.358;2024-01-27T00:09:44;46.82;42.03;64.36;;
72276;Laerm;61204;49.980;8.358;2024-01-27T00:12:09;47.06;43.11;59.80;;
72276;Laerm;61204;49.980;8.358;2024-01-27T00:14:38;47.00;40.67;64.05;;
72276;Laerm;61204;49.980;8.358;2024-01-27T00:17:04;46.69;40.91;53.28;;
72276;Laerm;61204;49.980;8.358;2024-01-27T00:19:30;47.08;42.47;56.49;;
72276;Laerm;61204;49.980;8.358;2024-01-27T00:21:58;47.15;42.85;53.04;;
72276;Laerm;61204;49.980;8.358;2024-01-27T00:24:24;51.53;42.22;69.36;;
72276;Laerm;61204;49.980;8.358;2024-01-27T00:26:49;48.85;44.49;57.06;;
72276;Laerm;61204;49.980;8.358;2024-01-27T00:29:15;47.88;42.51;65.21;;
72276;Laerm;61204;49.980;8.358;2024-01-27T00:31:41;47.84;43.23;60.40;;
72276;Laerm;61204;49.980;8.358;2024-01-27T00:34:06;51.08;43.80;63.50;;
72276;Laerm;61204;49.980;8.358;2024-01-27T00:36:32;48.10;40.94;55.42;;
72276;Laerm;61204;49.980;8.358;2024-01-27T00:38:57;49.13;41.51;58.22;;
72276;Laerm;61204;49.980;8.358;2024-01-27T00:41:23;48.87;42.71;64.56;;
72276;Laerm;61204;49.980;8.358;2024-01-27T00:43:48;50.21;42.92;59.07;;
72276;Laerm;61204;49.980;8.358;2024-01-27T00:46:14;49.35;44.66;59.54;;
72276;Laerm;61204;49.980;8.358;2024-01-27T00:48:40;48.61;43.86;55.34;;
72276;Laerm;61204;49.980;8.358;2024-01-27T00:51:07;49.26;42.76;65.75;;
72276;Laerm;61204;49.980;8.358;2024-01-27T00:53:33;49.35;43.73;70.39;;
72276;Laerm;61204;49.980;8.358;2024-01-27T00:55:59;45.84;39.43;54.17;;
72276;Laerm;61204;49.980;8.358;2024-01-27T00:58:24;46.27;40.61;55.68;;
72276;Laerm;61204;49.980;8.358;2024-01-27T01:00:50;47.44;42.37;59.41;;
72276;Laerm;61204;49.980;8.358;2024-01-27T01:03:18;46.87;42.09;52.96;;
72276;Laerm;61204;49.980;8.358;2024-01-27T01:05:43;47.94;43.34;53.33;;
72276;Laerm;61204;49.980;8.358;2024-01-27T01:08:09;48.11;43.61;53.74;;
72276;Laerm;61204;49.980;8.358;2024-01-27T01:10:34;47.65;42.37;55.99;;
72276;Laerm;61204;49.980;8.358;2024-01-27T01:13:00;49.83;45.63;55.87;;
72276;Laerm;61204;49.980;8.358;2024-01-27T01:15:26;49.25;44.84;56.78;;
72276;Laerm;61204;49.980;8.358;2024-01-27T01:17:51;50.54;45.34;59.11;;
72276;Laerm;61204;49.980;8.358;2024-01-27T01:20:17;49.34;44.23;55.41;;
72276;Laerm;61204;49.980;8.358;2024-01-27T01:22:42;48.47;44.05;53.08;;
72276;Laerm;61204;49.980;8.358;2024-01-27T01:25:08;47.89;42.52;54.29;;
72276;Laerm;61204;49.980;8.358;2024-01-27T01:27:38;50.63;44.44;60.17;;
72276;Laerm;61204;49.980;8.358;2024-01-27T01:30:05;49.52;42.65;61.20;;
72276;Laerm;61204;49.980;8.358;2024-01-27T01:32:31;47.05;40.78;55.94;;
72276;Laerm;61204;49.980;8.358;2024-01-27T01:34:56;48.31;43.75;54.72;;
72276;Laerm;61204;49.980;8.358;2024-01-27T01:37:24;49.81;44.39;55.99;;
72276;Laerm;61204;49.980;8.358;2024-01-27T01:39:52;46.81;40.71;54.37;;
72276;Laerm;61204;49.980;8.358;2024-01-27T01:42:18;47.35;40.80;53.12;;
72276;Laerm;61204;49.980;8.358;2024-01-27T01:44:45;49.73;44.45;56.91;;
72276;Laerm;61204;49.980;8.358;2024-01-27T01:47:11;48.91;45.28;53.80;;
72276;Laerm;61204;49.980;8.358;2024-01-27T01:49:37;47.83;42.72;53.56;;
72276;Laerm;61204;49.980;8.358;2024-01-27T01:52:04;48.76;44.64;54.49;;
72276;Laerm;61204;49.980;8.358;2024-01-27T01:54:29;49.14;44.91;55.56;;
72276;Laerm;61204;49.980;8.358;2024-01-27T01:56:58;49.19;44.24;56.48;;
72276;Laerm;61204;49.980;8.358;2024-01-27T01:59:24;48.05;43.40;53.29;;
72276;Laerm;61204;49.980;8.358;2024-01-27T02:01:50;48.01;43.52;53.07;;
72276;Laerm;61204;49.980;8.358;2024-01-27T02:04:16;47.82;42.31;61.27;;
72276;Laerm;61204;49.980;8.358;2024-01-27T02:06:44;49.97;44.07;59.22;;
72276;Laerm;61204;49.980;8.358;2024-01-27T02:09:11;49.27;43.89;54.89;;
72276;Laerm;61204;49.980;8.358;2024-01-27T02:11:37;48.41;41.67;54.08;;
72276;Laerm;61204;49.980;8.358;2024-01-27T02:14:03;49.48;40.62;54.71;;
72276;Laerm;61204;49.980;8.358;2024-01-27T02:16:29;48.13;42.46;54.46;;
72276;Laerm;61204;49.980;8.358;2024-01-27T02:18:55;48.44;43.05;54.56;;
72276;Laerm;61204;49.980;8.358;2024-01-27T02:21:20;50.06;44.87;57.49;;
72276;Laerm;61204;49.980;8.358;2024-01-27T02:23:46;50.54;42.90;62.34;;
72276;Laerm;61204;49.980;8.358;2024-01-27T02:26:11;48.86;43.75;55.29;;
72276;Laerm;61204;49.980;8.358;2024-01-27T02:28:37;49.93;46.30;53.98;;
72276;Laerm;61204;49.980;8.358;2024-01-27T02:31:02;48.97;41.87;54.32;;
72276;Laerm;61204;49.980;8.358;2024-01-27T02:33:31;48.86;42.12;59.55;;
72276;Laerm;61204;49.980;8.358;2024-01-27T02:35:56;49.11;42.01;56.73;;
72276;Laerm;61204;49.980;8.358;2024-01-27T02:38:22;48.83;44.19;56.04;;
72276;Laerm;61204;49.980;8.358;2024-01-27T02:40:47;50.75;45.25;58.31;;
72276;Laerm;61204;49.980;8.358;2024-01-27T02:43:15;49.80;45.48;56.84;;
72276;Laerm;61204;49.980;8.358;2024-01-27T02:45:43;47.71;40.84;55.83;;
72276;Laerm;61204;49.980;8.358;2024-01-27T02:48:09;47.64;41.16;53.82;;
72276;Laerm;61204;49.980;8.358;2024-01-27T02:50:37;48.76;44.54;53.86;;
72276;Laerm;61204;49.980;8.358;2024-01-27T02:53:03;46.70;40.51;52.33;;
72276;Laerm;61204;49.980;8.358;2024-01-27T02:55:30;49.75;43.94;56.73;;
72276;Laerm;61204;49.980;8.358;2024-01-27T02:57:56;45.33;40.93;51.52;;
72276;Laerm;61204;49.980;8.358;2024-01-27T03:00:22;46.30;41.58;52.44;;
72276;Laerm;61204;49.980;8.358;2024-01-27T03:02:47;47.63;42.85;55.42;;
72276;Laerm;61204;49.980;8.358;2024-01-27T03:05:15;47.46;42.15;54.96;;
72276;Laerm;61204;49.980;8.358;2024-01-27T03:07:41;51.64;44.10;65.03;;
72276;Laerm;61204;49.980;8.358;2024-01-27T03:10:07;49.82;44.39;58.39;;
72276;Laerm;61204;49.980;8.358;2024-01-27T03:12:32;55.67;45.41;69.50;;
72276;Laerm;61204;49.980;8.358;2024-01-27T03:15:03;51.86;44.04;60.91;;
72276;Laerm;61204;49.980;8.358;2024-01-27T03:17:29;48.76;44.01;55.24;;
72276;Laerm;61204;49.980;8.358;2024-01-27T03:19:55;47.86;42.80;52.33;;
72276;Laerm;61204;49.980;8.358;2024-01-27T03:22:20;47.91;43.03;52.80;;
72276;Laerm;61204;49.980;8.358;2024-01-27T03:24:46;47.33;41.34;53.45;;
72276;Laerm;61204;49.980;8.358;2024-01-27T03:27:11;49.27;44.36;56.61;;
72276;Laerm;61204;49.980;8.358;2024-01-27T03:29:39;47.52;43.76;54.75;;
72276;Laerm;61204;49.980;8.358;2024-01-27T03:32:05;47.26;42.38;53.05;;
72276;Laerm;61204;49.980;8.358;2024-01-27T03:34:33;47.72;42.72;54.23;;
72276;Laerm;61204;49.980;8.358;2024-01-27T03:36:58;48.67;43.25;60.82;;
72276;Laerm;61204;49.980;8.358;2024-01-27T03:39:24;48.40;43.82;54.49;;
72276;Laerm;61204;49.980;8.358;2024-01-27T03:41:52;48.73;44.47;54.06;;
72276;Laerm;61204;49.980;8.358;2024-01-27T03:44:17;50.73;44.33;66.65;;
72276;Laerm;61204;49.980;8.358;2024-01-27T03:46:43;49.81;43.62;61.56;;
72276;Laerm;61204;49.980;8.358;2024-01-27T03:49:08;50.19;45.11;63.25;;
72276;Laerm;61204;49.980;8.358;2024-01-27T03:51:34;46.85;42.17;59.50;;
72276;Laerm;61204;49.980;8.358;2024-01-27T03:53:59;49.81;43.97;64.11;;
72276;Laerm;61204;49.980;8.358;2024-01-27T03:56:25;47.71;42.04;63.69;;
72276;Laerm;61204;49.980;8.358;2024-01-27T03:58:50;50.32;44.45;62.48;;
72276;Laerm;61204;49.980;8.358;2024-01-27T04:01:18;47.58;41.31;59.39;;
72276;Laerm;61204;49.980;8.358;2024-01-27T04:03:44;50.94;43.05;65.43;;
72276;Laerm;61204;49.980;8.358;2024-01-27T04:06:09;49.49;43.98;62.96;;
72276;Laerm;61204;49.980;8.358;2024-01-27T04:08:35;51.90;44.15;63.04;;
72276;Laerm;61204;49.980;8.358;2024-01-27T04:11:00;50.43;44.63;60.05;;
72276;Laerm;61204;49.980;8.358;2024-01-27T04:13:26;50.56;44.90;60.71;;
72276;Laerm;61204;49.980;8.358;2024-01-27T04:15:51;51.72;45.70;62.19;;
72276;Laerm;61204;49.980;8.358;2024-01-27T04:18:19;50.09;44.67;59.98;;
72276;Laerm;61204;49.980;8.358;2024-01-27T04:20:44;50.75;45.96;70.17;;
72276;Laerm;61204;49.980;8.358;2024-01-27T04:23:11;49.94;44.30;64.81;;
72276;Laerm;61204;49.980;8.358;2024-01-27T04:25:36;51.87;43.22;65.32;;
72276;Laerm;61204;49.980;8.358;2024-01-27T04:28:02;50.27;44.05;63.71;;
72276;Laerm;61204;49.980;8.358;2024-01-27T04:30:28;49.89;43.36;64.67;;
72276;Laerm;61204;49.980;8.358;2024-01-27T04:32:54;49.91;45.19;58.04;;
72276;Laerm;61204;49.980;8.358;2024-01-27T04:35:20;50.11;45.57;55.75;;
72276;Laerm;61204;49.980;8.358;2024-01-27T04:37:45;49.99;44.84;56.20;;
72276;Laerm;61204;49.980;8.358;2024-01-27T04:40:11;52.79;46.84;60.30;;
72276;Laerm;61204;49.980;8.358;2024-01-27T04:42:39;50.71;44.97;60.56;;
72276;Laerm;61204;49.980;8.358;2024-01-27T04:45:08;52.29;46.60;64.44;;
72276;Laerm;61204;49.980;8.358;2024-01-27T04:47:33;51.39;46.28;61.49;;
72276;Laerm;61204;49.980;8.358;2024-01-27T04:49:59;52.69;47.71;69.07;;
72276;Laerm;61204;49.980;8.358;2024-01-27T04:52:24;51.10;45.74;59.23;;
72276;Laerm;61204;49.980;8.358;2024-01-27T04:54:51;51.36;44.86;60.14;;
72276;Laerm;61204;49.980;8.358;2024-01-27T04:57:16;51.72;44.86;58.76;;
72276;Laerm;61204;49.980;8.358;2024-01-27T04:59:42;51.24;46.07;60.76;;
72276;Laerm;61204;49.980;8.358;2024-01-27T05:02:08;50.19;44.75;60.38;;
72276;Laerm;61204;49.980;8.358;2024-01-27T05:04:33;48.20;43.71;64.34;;
72276;Laerm;61204;49.980;8.358;2024-01-27T05:07:01;50.63;45.24;60.72;;
72276;Laerm;61204;49.980;8.358;2024-01-27T05:09:26;50.11;45.09;67.23;;
72276;Laerm;61204;49.980;8.358;2024-01-27T05:11:54;49.97;46.13;57.87;;
72276;Laerm;61204;49.980;8.358;2024-01-27T05:14:20;50.95;47.05;56.74;;
72276;Laerm;61204;49.980;8.358;2024-01-27T05:16:48;50.36;45.04;58.35;;
72276;Laerm;61204;49.980;8.358;2024-01-27T05:19:16;51.29;46.63;61.58;;
72276;Laerm;61204;49.980;8.358;2024-01-27T05:21:43;52.52;48.53;58.13;;
72276;Laerm;61204;49.980;8.358;2024-01-27T05:24:09;50.73;46.66;54.68;;
72276;Laerm;61204;49.980;8.358;2024-01-27T05:26:35;51.33;47.43;56.08;;
72276;Laerm;61204;49.980;8.358;2024-01-27T05:29:00;50.69;46.66;58.49;;
72276;Laerm;61204;49.980;8.358;2024-01-27T05:31:26;50.92;46.78;62.54;;
72276;Laerm;61204;49.980;8.358;2024-01-27T05:33:52;50.56;44.98;55.81;;
72276;Laerm;61204;49.980;8.358;2024-01-27T05:36:18;50.11;45.56;62.69;;
72276;Laerm;61204;49.980;8.358;2024-01-27T05:38:43;50.63;45.97;57.56;;
72276;Laerm;61204;49.980;8.358;2024-01-27T05:41:09;50.00;45.48;54.33;;
72276;Laerm;61204;49.980;8.358;2024-01-27T05:43:34;50.08;45.90;56.53;;
72276;Laerm;61204;49.980;8.358;2024-01-27T05:46:00;49.85;46.08;60.75;;
72276;Laerm;61204;49.980;8.358;2024-01-27T05:48:26;51.05;47.00;55.25;;
72276;Laerm;61204;49.980;8.358;2024-01-27T05:51:00;53.12;47.08;63.31;;
72276;Laerm;61204;49.980;8.358;2024-01-27T05:53:27;52.45;48.21;58.51;;
72276;Laerm;61204;49.980;8.358;2024-01-27T05:55:53;52.94;48.20;58.86;;
72276;Laerm;61204;49.980;8.358;2024-01-27T05:58:20;53.13;48.97;58.25;;
72276;Laerm;61204;49.980;8.358;2024-01-27T06:00:49;52.35;47.81;62.53;;
72276;Laerm;61204;49.980;8.358;2024-01-27T06:03:15;50.59;46.56;61.02;;
72276;Laerm;61204;49.980;8.358;2024-01-27T06:05:42;50.44;46.70;55.60;;
72276;Laerm;61204;49.980;8.358;2024-01-27T06:08:08;51.68;46.22;61.62;;
72276;Laerm;61204;49.980;8.358;2024-01-27T06:10:34;49.00;44.74;59.75;;
72276;Laerm;61204;49.980;8.358;2024-01-27T06:13:03;49.99;45.14;56.38;;
72276;Laerm;61204;49.980;8.358;2024-01-27T06:15:29;52.76;47.95;60.76;;
72276;Laerm;61204;49.980;8.358;2024-01-27T06:17:54;53.42;49.43;57.62;;
72276;Laerm;61204;49.980;8.358;2024-01-27T06:20:20;51.42;46.97;54.56;;
72276;Laerm;61204;49.980;8.358;2024-01-27T06:22:45;52.33;48.54;63.29;;
72276;Laerm;61204;49.980;8.358;2024-01-27T06:25:11;52.02;48.68;56.22;;
72276;Laerm;61204;49.980;8.358;2024-01-27T06:27:37;52.86;48.37;58.62;;
72276;Laerm;61204;49.980;8.358;2024-01-27T06:30:05;52.42;48.22;60.84;;
72276;Laerm;61204;49.980;8.358;2024-01-27T06:32:31;52.50;48.11;56.80;;
72276;Laerm;61204;49.980;8.358;2024-01-27T06:34:56;51.13;46.32;55.53;;
72276;Laerm;61204;49.980;8.358;2024-01-27T06:37:22;52.68;45.90;65.28;;
72276;Laerm;61204;49.980;8.358;2024-01-27T06:39:47;53.90;48.90;64.93;;
72276;Laerm;61204;49.980;8.358;2024-01-27T06:42:13;52.95;49.57;57.29;;
72276;Laerm;61204;49.980;8.358;2024-01-27T06:44:41;53.81;49.18;61.95;;
72276;Laerm;61204;49.980;8.358;2024-01-27T06:47:06;54.81;50.38;63.23;;
72276;Laerm;61204;49.980;8.358;2024-01-27T06:49:32;54.80;48.58;64.05;;
72276;Laerm;61204;49.980;8.358;2024-01-27T06:51:59;52.55;48.95;62.26;;
72276;Laerm;61204;49.980;8.358;2024-01-27T06:54:25;54.33;49.17;60.24;;
72276;Laerm;61204;49.980;8.358;2024-01-27T06:56:51;55.38;50.12;65.15;;
72276;Laerm;61204;49.980;8.358;2024-01-27T06:59:17;56.32;49.53;63.11;;
72276;Laerm;61204;49.980;8.358;2024-01-27T07:01:47;55.15;49.76;64.56;;
72276;Laerm;61204;49.980;8.358;2024-01-27T07:04:14;54.56;48.45;61.87;;
72276;Laerm;61204;49.980;8.358;2024-01-27T07:06:40;52.67;47.91;58.58;;
72276;Laerm;61204;49.980;8.358;2024-01-27T07:09:06;56.17;48.23;75.65;;
72276;Laerm;61204;49.980;8.358;2024-01-27T07:11:32;54.38;47.97;80.02;;
72276;Laerm;61204;49.980;8.358;2024-01-27T07:13:59;53.13;48.63;59.41;;
72276;Laerm;61204;49.980;8.358;2024-01-27T07:16:24;52.66;47.72;60.72;;
72276;Laerm;61204;49.980;8.358;2024-01-27T07:18:52;51.55;47.02;62.86;;
72276;Laerm;61204;49.980;8.358;2024-01-27T07:21:18;49.78;46.76;54.72;;
72276;Laerm;61204;49.980;8.358;2024-01-27T07:23:44;50.91;46.22;59.30;;
72276;Laerm;61204;49.980;8.358;2024-01-27T07:26:11;50.17;45.33;55.25;;
72276;Laerm;61204;49.980;8.358;2024-01-27T07:28:39;51.51;47.29;58.97;;
72276;Laerm;61204;49.980;8.358;2024-01-27T07:31:07;54.62;48.71;63.95;;
72276;Laerm;61204;49.980;8.358;2024-01-27T07:33:33;53.75;49.39;58.71;;
72276;Laerm;61204;49.980;8.358;2024-01-27T07:35:58;51.80;48.56;55.60;;
72276;Laerm;61204;49.980;8.358;2024-01-27T07:38:26;51.57;46.82;58.55;;
72276;Laerm;61204;49.980;8.358;2024-01-27T07:40:52;52.18;48.15;63.65;;
72276;Laerm;61204;49.980;8.358;2024-01-27T07:43:17;51.16;47.15;56.98;;
72276;Laerm;61204;49.980;8.358;2024-01-27T07:45:43;52.50;48.45;59.94;;
72276;Laerm;61204;49.980;8.358;2024-01-27T07:48:11;54.48;47.95;65.17;;
72276;Laerm;61204;49.980;8.358;2024-01-27T07:50:38;53.97;48.90;65.42;;
72276;Laerm;61204;49.980;8.358;2024-01-27T07:53:05;52.16;47.59;59.39;;
72276;Laerm;61204;49.980;8.358;2024-01-27T07:55:31;52.70;48.89;57.00;;
72276;Laerm;61204;49.980;8.358;2024-01-27T07:57:57;51.72;47.46;58.83;;
72276;Laerm;61204;49.980;8.358;2024-01-27T08:00:26;52.90;48.40;59.55;;
72276;Laerm;61204;49.980;8.358;2024-01-27T08:02:52;52.51;48.92;58.35;;
72276;Laerm;61204;49.980;8.358;2024-01-27T08:05:17;52.97;48.64;58.72;;
72276;Laerm;61204;49.980;8.358;2024-01-27T08:07:45;53.28;48.18;61.11;;
72276;Laerm;61204;49.980;8.358;2024-01-27T08:10:11;53.48;47.99;67.78;;
72276;Laerm;61204;49.980;8.358;2024-01-27T08:12:39;56.12;49.93;69.26;;
72276;Laerm;61204;49.980;8.358;2024-01-27T08:15:06;55.72;50.33;64.70;;
72276;Laerm;61204;49.980;8.358;2024-01-27T08:17:33;55.05;48.37;67.55;;
72276;Laerm;61204;49.980;8.358;2024-01-27T08:19:59;52.44;49.29;57.59;;
72276;Laerm;61204;49.980;8.358;2024-01-27T08:22:25;52.27;49.08;57.90;;
72276;Laerm;61204;49.980;8.358;2024-01-27T08:24:50;52.43;48.98;56.30;;
72276;Laerm;61204;49.980;8.358;2024-01-27T08:27:16;53.45;49.89;60.43;;
72276;Laerm;61204;49.980;8.358;2024-01-27T08:29:42;52.10;49.11;58.87;;
72276;Laerm;61204;49.980;8.358;2024-01-27T08:32:07;51.66;48.13;63.38;;
72276;Laerm;61204;49.980;8.358;2024-01-27T08:34:35;52.48;46.70;62.61;;
72276;Laerm;61204;49.980;8.358;2024-01-27T08:37:19;54.60;46.71;75.90;;
72276;Laerm;61204;49.980;8.358;2024-01-27T08:39:45;48.44;45.60;53.32;;
72276;Laerm;61204;49.980;8.358;2024-01-27T08:42:11;49.14;44.68;60.03;;
72276;Laerm;61204;49.980;8.358;2024-01-27T08:44:38;48.84;45.55;56.38;;
72276;Laerm;61204;49.980;8.358;2024-01-27T08:47:05;51.63;45.37;62.84;;
72276;Laerm;61204;49.980;8.358;2024-01-27T08:49:33;50.87;44.58;69.03;;
72276;Laerm;61204;49.980;8.358;2024-01-27T09:15:46;50.54;44.04;65.17;;
72276;Laerm;61204;49.980;8.358;2024-01-27T09:21:27;48.52;43.10;59.71;;
72276;Laerm;61204;49.980;8.358;2024-01-27T09:23:55;51.34;45.11;60.53;;
72276;Laerm;61204;49.980;8.358;2024-01-27T09:26:23;49.85;43.73;68.10;;
72276;Laerm;61204;49.980;8.358;2024-01-27T09:28:49;53.05;43.48;62.13;;
72276;Laerm;61204;49.980;8.358;2024-01-27T09:31:22;50.30;43.85;68.14;;
72276;Laerm;61204;49.980;8.358;2024-01-27T09:33:53;51.81;44.70;60.68;;
72276;Laerm;61204;49.980;8.358;2024-01-27T09:36:20;47.44;43.60;62.13;;
72276;Laerm;61204;49.980;8.358;2024-01-27T09:38:51;48.68;42.59;66.34;;
72276;Laerm;61204;49.980;8.358;2024-01-27T09:41:18;48.04;41.23;68.44;;
72276;Laerm;61204;49.980;8.358;2024-01-27T09:43:45;48.39;42.63;64.64;;
72276;Laerm;61204;49.980;8.358;2024-01-27T09:46:16;52.61;43.93;66.69;;
72276;Laerm;61204;49.980;8.358;2024-01-27T09:48:44;51.39;43.50;68.10;;
72276;Laerm;61204;49.980;8.358;2024-01-27T09:51:11;50.02;42.08;66.95;;
72276;Laerm;61204;49.980;8.358;2024-01-27T09:53:37;56.18;41.99;77.18;;
72276;Laerm;61204;49.980;8.358;2024-01-27T09:56:03;48.20;42.43;62.29;;
72276;Laerm;61204;49.980;8.358;2024-01-27T09:58:32;49.58;41.42;67.13;;
72276;Laerm;61204;49.980;8.358;2024-01-27T10:01:00;50.00;42.97;66.53;;
72276;Laerm;61204;49.980;8.358;2024-01-27T10:03:29;49.61;42.35;67.27;;
72276;Laerm;61204;49.980;8.358;2024-01-27T10:05:56;49.06;43.13;66.58;;
72276;Laerm;61204;49.980;8.358;2024-01-27T10:08:23;49.02;42.22;66.84;;
72276;Laerm;61204;49.980;8.358;2024-01-27T10:10:56;49.92;41.82;65.41;;
72276;Laerm;61204;49.980;8.358;2024-01-27T10:13:22;47.78;41.59;67.03;;
72276;Laerm;61204;49.980;8.358;2024-01-27T10:16:05;48.62;42.34;63.79;;
72276;Laerm;61204;49.980;8.358;2024-01-27T10:18:33;48.53;41.92;72.94;;
72276;Laerm;61204;49.980;8.358;2024-01-27T10:21:00;48.02;41.09;67.96;;
72276;Laerm;61204;49.980;8.358;2024-01-27T10:23:27;52.72;42.49;65.85;;
72276;Laerm;61204;49.980;8.358;2024-01-27T10:25:53;47.63;41.71;65.78;;
72276;Laerm;61204;49.980;8.358;2024-01-27T10:28:21;48.15;43.71;66.49;;
72276;Laerm;61204;49.980;8.358;2024-01-27T10:30:51;54.09;42.41;76.38;;
72276;Laerm;61204;49.980;8.358;2024-01-27T10:33:16;53.58;43.57;67.00;;
72276;Laerm;61204;49.980;8.358;2024-01-27T10:35:45;54.54;44.28;67.08;;
72276;Laerm;61204;49.980;8.358;2024-01-27T10:38:11;52.97;45.26;67.70;;
72276;Laerm;61204;49.980;8.358;2024-01-27T10:40:38;50.87;45.03;66.56;;
72276;Laerm;61204;49.980;8.358;2024-01-27T10:43:07;53.13;44.34;74.14;;
72276;Laerm;61204;49.980;8.358;2024-01-27T10:45:42;49.18;44.07;65.34;;
72276;Laerm;61204;49.980;8.358;2024-01-27T10:48:09;48.76;44.42;63.37;;
72276;Laerm;61204;49.980;8.358;2024-01-27T10:50:40;50.38;44.29;59.33;;
72276;Laerm;61204;49.980;8.358;2024-01-27T10:53:22;50.72;45.77;65.31;;
72276;Laerm;61204;49.980;8.358;2024-01-27T10:55:54;50.50;45.52;65.08;;
72276;Laerm;61204;49.980;8.358;2024-01-27T10:58:24;50.95;44.19;66.98;;
72276;Laerm;61204;49.980;8.358;2024-01-27T11:00:56;49.12;44.58;62.55;;
72276;Laerm;61204;49.980;8.358;2024-01-27T11:03:23;49.74;45.43;67.44;;
72276;Laerm;61204;49.980;8.358;2024-01-27T11:05:52;52.15;46.39;66.14;;
72276;Laerm;61204;49.980;8.358;2024-01-27T11:08:18;50.59;46.30;62.01;;
72276;Laerm;61204;49.980;8.358;2024-01-27T11:10:45;51.54;44.71;65.54;;
72276;Laerm;61204;49.980;8.358;2024-01-27T11:13:12;51.23;45.72;61.51;;
72276;Laerm;61204;49.980;8.358;2024-01-27T11:15:51;50.81;45.82;66.06;;
72276;Laerm;61204;49.980;8.358;2024-01-27T11:18:17;51.49;46.33;63.73;;
72276;Laerm;61204;49.980;8.358;2024-01-27T11:20:47;50.74;46.03;59.11;;
72276;Laerm;61204;49.980;8.358;2024-01-27T11:23:13;50.10;45.58;59.92;;
72276;Laerm;61204;49.980;8.358;2024-01-27T11:25:42;49.37;44.94;65.98;;
72276;Laerm;61204;49.980;8.358;2024-01-27T11:28:16;50.74;45.33;69.85;;
72276;Laerm;61204;49.980;8.358;2024-01-27T11:30:47;50.78;44.12;60.35;;
72276;Laerm;61204;49.980;8.358;2024-01-27T11:33:13;50.68;45.77;59.37;;
72276;Laerm;61204;49.980;8.358;2024-01-27T11:35:42;52.69;46.43;62.24;;
72276;Laerm;61204;49.980;8.358;2024-01-27T11:38:09;54.37;46.43;64.78;;
72276;Laerm;61204;49.980;8.358;2024-01-27T11:40:48;55.46;47.11;61.69;;
72276;Laerm;61204;49.980;8.358;2024-01-27T11:43:15;55.36;46.14;63.14;;
72276;Laerm;61204;49.980;8.358;2024-01-27T11:45:41;55.54;45.89;63.44;;
72276;Laerm;61204;49.980;8.358;2024-01-27T11:48:07;55.27;47.01;60.69;;
72276;Laerm;61204;49.980;8.358;2024-01-27T11:50:32;55.12;45.76;61.53;;
72276;Laerm;61204;49.980;8.358;2024-01-27T11:52:58;54.25;46.47;63.04;;
72276;Laerm;61204;49.980;8.358;2024-01-27T11:55:23;55.48;49.66;61.90;;
72276;Laerm;61204;49.980;8.358;2024-01-27T11:57:51;54.56;46.34;62.95;;
72276;Laerm;61204;49.980;8.358;2024-01-27T12:00:17;53.51;46.65;61.46;;
72276;Laerm;61204;49.980;8.358;2024-01-27T12:02:43;56.21;50.91;62.58;;
72276;Laerm;61204;49.980;8.358;2024-01-27T12:05:09;55.87;47.96;66.04;;
72276;Laerm;61204;49.980;8.358;2024-01-27T12:07:38;54.08;46.67;60.84;;
72276;Laerm;61204;49.980;8.358;2024-01-27T12:10:04;56.50;48.38;62.57;;
72276;Laerm;61204;49.980;8.358;2024-01-27T12:12:30;57.13;50.57;66.18;;
72276;Laerm;61204;49.980;8.358;2024-01-27T12:14:56;54.92;46.77;60.77;;
72276;Laerm;61204;49.980;8.358;2024-01-27T12:17:22;55.70;47.21;63.27;;
72276;Laerm;61204;49.980;8.358;2024-01-27T12:19:51;55.25;46.09;59.47;;
72276;Laerm;61204;49.980;8.358;2024-01-27T12:22:29;57.13;47.23;76.24;;
72276;Laerm;61204;49.980;8.358;2024-01-27T12:25:09;57.33;45.89;69.57;;
72276;Laerm;61204;49.980;8.358;2024-01-27T12:27:35;51.59;45.83;61.77;;
72276;Laerm;61204;49.980;8.358;2024-01-27T12:30:02;53.48;45.51;59.53;;
72276;Laerm;61204;49.980;8.358;2024-01-27T12:32:31;49.54;44.85;59.32;;
72276;Laerm;61204;49.980;8.358;2024-01-27T12:34:58;50.19;45.17;67.88;;
72276;Laerm;61204;49.980;8.358;2024-01-27T12:37:26;50.46;44.22;62.92;;
72276;Laerm;61204;49.980;8.358;2024-01-27T12:39:51;52.66;46.12;66.80;;
72276;Laerm;61204;49.980;8.358;2024-01-27T12:42:18;52.91;47.38;65.08;;
72276;Laerm;61204;49.980;8.358;2024-01-27T12:44:46;51.95;48.06;62.30;;
72276;Laerm;61204;49.980;8.358;2024-01-27T12:47:11;52.35;47.58;62.64;;
72276;Laerm;61204;49.980;8.358;2024-01-27T12:49:42;52.43;47.31;59.94;;
72276;Laerm;61204;49.980;8.358;2024-01-27T12:52:08;53.25;48.31;61.30;;
72276;Laerm;61204;49.980;8.358;2024-01-27T12:54:33;53.48;46.29;63.71;;
72276;Laerm;61204;49.980;8.358;2024-01-27T12:56:59;53.19;48.03;63.96;;
72276;Laerm;61204;49.980;8.358;2024-01-27T12:59:27;54.16;47.58;69.03;;
72276;Laerm;61204;49.980;8.358;2024-01-27T13:01:55;52.94;47.49;69.77;;
72276;Laerm;61204;49.980;8.358;2024-01-27T13:04:21;53.01;47.08;64.57;;
72276;Laerm;61204;49.980;8.358;2024-01-27T13:06:48;51.45;45.97;60.46;;
72276;Laerm;61204;49.980;8.358;2024-01-27T13:09:13;51.54;45.45;61.34;;
72276;Laerm;61204;49.980;8.358;2024-01-27T13:11:39;51.60;47.51;63.23;;
72276;Laerm;61204;49.980;8.358;2024-01-27T13:14:05;52.60;47.93;62.29;;
72276;Laerm;61204;49.980;8.358;2024-01-27T13:16:32;52.20;47.57;63.38;;
72276;Laerm;61204;49.980;8.358;2024-01-27T13:18:58;52.64;48.12;61.37;;
72276;Laerm;61204;49.980;8.358;2024-01-27T13:21:23;52.41;47.52;63.48;;
72276;Laerm;61204;49.980;8.358;2024-01-27T13:23:49;54.81;46.53;65.46;;
72276;Laerm;61204;49.980;8.358;2024-01-27T13:26:14;53.16;46.48;63.19;;
72276;Laerm;61204;49.980;8.358;2024-01-27T13:28:41;51.75;46.86;58.57;;
72276;Laerm;61204;49.980;8.358;2024-01-27T13:31:07;54.54;47.09;63.66;;
72276;Laerm;61204;49.980;8.358;2024-01-27T13:33:32;53.79;48.64;60.81;;
72276;Laerm;61204;49.980;8.358;2024-01-27T13:36:01;52.11;47.56;60.98;;
72276;Laerm;61204;49.980;8.358;2024-01-27T13:38:26;53.20;47.05;60.53;;
72276;Laerm;61204;49.980;8.358;2024-01-27T13:40:52;52.76;47.74;61.26;;
72276;Laerm;61204;49.980;8.358;2024-01-27T13:43:17;52.95;48.54;68.76;;
72276;Laerm;61204;49.980;8.358;2024-01-27T13:45:43;53.04;47.11;63.68;;
72276;Laerm;61204;49.980;8.358;2024-01-27T13:48:10;51.71;46.32;58.53;;
72276;Laerm;61204;49.980;8.358;2024-01-27T13:50:35;52.92;47.52;62.57;;
72276;Laerm;61204;49.980;8.358;2024-01-27T13:53:01;52.96;48.86;64.35;;
72276;Laerm;61204;49.980;8.358;2024-01-27T13:55:27;53.17;48.02;66.76;;
72276;Laerm;61204;49.980;8.358;2024-01-27T13:57:53;53.47;48.78;61.54;;
72276;Laerm;61204;49.980;8.358;2024-01-27T14:00:19;56.65;48.32;81.09;;
72276;Laerm;61204;49.980;8.358;2024-01-27T14:02:46;52.99;48.23;74.36;;
72276;Laerm;61204;49.980;8.358;2024-01-27T14:05:11;53.14;47.13;68.45;;
72276;Laerm;61204;49.980;8.358;2024-01-27T14:07:37;52.48;45.88;66.29;;
72276;Laerm;61204;49.980;8.358;2024-01-27T14:10:06;52.29;45.75;67.91;;